sensor_id;sensor_type;location;lat;lon;timestamp;pressure;altitude;pressure_sealevel;temperature;humidity
77739;BME280;66904;59.926;30.404;2023-02-08T00:00:59;103413.28;;;27.65;23.27
77739;BME280;66904;59.926;30.404;2023-02-08T00:06:30;103401.59;;;27.72;22.67
77739;BME280;66904;59.926;30.404;2023-02-08T00:11:49;103400.53;;;27.65;22.97
77739;BME280;66904;59.926;30.404;2023-02-08T00:17:01;103395.97;;;27.66;22.77
77739;BME280;66904;59.926;30.404;2023-02-08T00:22:45;103388.16;;;27.71;22.85
77739;BME280;66904;59.926;30.404;2023-02-08T00:27:49;103376.25;;;27.64;22.74
77739;BME280;66904;59.926;30.404;2023-02-08T00:44:43;103376.06;;;27.65;22.74
77739;BME280;66904;59.926;30.404;2023-02-08T00:49:56;103380.00;;;27.71;22.69
77739;BME280;66904;59.926;30.404;2023-02-08T00:55:12;103368.44;;;27.69;22.61
77739;BME280;66904;59.926;30.404;2023-02-08T01:00:13;103382.72;;;27.71;22.31
77739;BME280;66904;59.926;30.404;2023-02-08T01:05:38;103376.25;;;27.72;22.43
77739;BME280;66904;59.926;30.404;2023-02-08T01:16:50;103380.69;;;27.73;22.31
77739;BME280;66904;59.926;30.404;2023-02-08T01:28:06;103366.91;;;27.66;21.83
77739;BME280;66904;59.926;30.404;2023-02-08T01:33:09;103352.28;;;27.67;22.01
77739;BME280;66904;59.926;30.404;2023-02-08T01:38:10;103366.91;;;27.66;22.09
77739;BME280;66904;59.926;30.404;2023-02-08T01:43:32;103356.03;;;27.74;21.96
77739;BME280;66904;59.926;30.404;2023-02-08T01:54:39;103345.16;;;27.74;22.25
77739;BME280;66904;59.926;30.404;2023-02-08T02:00:29;103328.00;;;27.74;21.98
77739;BME280;66904;59.926;30.404;2023-02-08T02:05:54;103317.06;;;27.66;22.10
77739;BME280;66904;59.926;30.404;2023-02-08T02:10:57;103314.19;;;27.67;22.04
77739;BME280;66904;59.926;30.404;2023-02-08T02:15:57;103306.19;;;27.66;22.11
77739;BME280;66904;59.926;30.404;2023-02-08T03:37:41;103276.94;;;27.68;21.75
77739;BME280;66904;59.926;30.404;2023-02-08T03:42:45;103298.19;;;27.64;21.71
77739;BME280;66904;59.926;30.404;2023-02-08T03:47:48;103286.78;;;27.61;21.54
77739;BME280;66904;59.926;30.404;2023-02-08T03:52:51;103299.88;;;27.65;21.49
77739;BME280;66904;59.926;30.404;2023-02-08T03:58:00;103303.31;;;27.67;21.20
77739;BME280;66904;59.926;30.404;2023-02-08T04:03:16;103306.72;;;27.69;21.15
77739;BME280;66904;59.926;30.404;2023-02-08T04:08:18;103317.41;;;27.63;21.84
77739;BME280;66904;59.926;30.404;2023-02-08T04:13:19;103343.28;;;27.67;21.38
77739;BME280;66904;59.926;30.404;2023-02-08T04:18:20;103332.53;;;27.65;21.47
77739;BME280;66904;59.926;30.404;2023-02-08T04:23:20;103348.84;;;27.65;21.75
77739;BME280;66904;59.926;30.404;2023-02-08T04:28:21;103344.59;;;27.63;21.40
77739;BME280;66904;59.926;30.404;2023-02-08T04:33:22;103334.41;;;27.65;22.10
77739;BME280;66904;59.926;30.404;2023-02-08T04:38:22;103333.41;;;27.66;22.50
77739;BME280;66904;59.926;30.404;2023-02-08T04:43:23;103332.53;;;27.65;22.54
77739;BME280;66904;59.926;30.404;2023-02-08T04:48:23;103351.44;;;27.67;22.58
77739;BME280;66904;59.926;30.404;2023-02-08T04:53:24;103338.69;;;27.67;22.83
77739;BME280;66904;59.926;30.404;2023-02-08T04:58:25;103339.03;;;27.72;23.12
77739;BME280;66904;59.926;30.404;2023-02-08T05:03:25;103329.69;;;27.75;22.41
77739;BME280;66904;59.926;30.404;2023-02-08T05:08:26;103340.25;;;27.78;22.51
77739;BME280;66904;59.926;30.404;2023-02-08T05:13:27;103330.22;;;27.79;22.67
77739;BME280;66904;59.926;30.404;2023-02-08T05:18:27;103321.84;;;27.72;22.62
77739;BME280;66904;59.926;30.404;2023-02-08T05:23:31;103318.78;;;27.67;22.41
77739;BME280;66904;59.926;30.404;2023-02-08T05:28:47;103325.72;;;27.61;21.86
77739;BME280;66904;59.926;30.404;2023-02-08T05:39:32;103319.72;;;27.50;21.86
77739;BME280;66904;59.926;30.404;2023-02-08T05:44:32;103328.19;;;27.47;22.05
77739;BME280;66904;59.926;30.404;2023-02-08T05:49:33;103323.75;;;27.46;22.20
77739;BME280;66904;59.926;30.404;2023-02-08T05:54:33;103321.22;;;27.44;21.38
77739;BME280;66904;59.926;30.404;2023-02-08T05:59:34;103330.34;;;27.43;22.08
77739;BME280;66904;59.926;30.404;2023-02-08T06:04:34;103325.25;;;27.40;21.66
77739;BME280;66904;59.926;30.404;2023-02-08T06:09:36;103338.97;;;27.39;22.02
77739;BME280;66904;59.926;30.404;2023-02-08T06:14:36;103331.81;;;27.38;21.91
77739;BME280;66904;59.926;30.404;2023-02-08T06:19:37;103335.59;;;27.37;21.68
77739;BME280;66904;59.926;30.404;2023-02-08T06:24:37;103327.75;;;27.34;21.35
77739;BME280;66904;59.926;30.404;2023-02-08T06:29:38;103324.84;;;27.35;21.80
77739;BME280;66904;59.926;30.404;2023-02-08T06:34:38;103322.13;;;27.35;21.79
77739;BME280;66904;59.926;30.404;2023-02-08T06:39:44;103336.91;;;27.33;21.23
77739;BME280;66904;59.926;30.404;2023-02-08T06:45:00;103342.34;;;27.33;21.66
77739;BME280;66904;59.926;30.404;2023-02-08T06:50:03;103322.44;;;27.50;21.08
77739;BME280;66904;59.926;30.404;2023-02-08T07:01:19;103337.56;;;27.27;21.29
77739;BME280;66904;59.926;30.404;2023-02-08T07:06:20;103337.06;;;27.31;21.38
77739;BME280;66904;59.926;30.404;2023-02-08T07:11:21;103346.06;;;27.32;21.31
77739;BME280;66904;59.926;30.404;2023-02-08T07:16:55;103341.88;;;27.37;21.51
77739;BME280;66904;59.926;30.404;2023-02-08T07:22:21;103346.06;;;27.32;21.15
77739;BME280;66904;59.926;30.404;2023-02-08T07:27:54;103348.09;;;27.30;20.90
77739;BME280;66904;59.926;30.404;2023-02-08T07:32:55;103330.91;;;27.21;21.56
77739;BME280;66904;59.926;30.404;2023-02-08T07:37:55;103313.03;;;27.18;21.10
77739;BME280;66904;59.926;30.404;2023-02-08T07:42:56;103301.28;;;27.18;21.31
77739;BME280;66904;59.926;30.404;2023-02-08T07:47:56;103316.06;;;27.15;21.52
77739;BME280;66904;59.926;30.404;2023-02-08T07:52:57;103308.09;;;27.14;20.92
77739;BME280;66904;59.926;30.404;2023-02-08T07:57:57;103312.81;;;27.12;21.28
77739;BME280;66904;59.926;30.404;2023-02-08T08:02:59;103310.94;;;27.12;20.97
77739;BME280;66904;59.926;30.404;2023-02-08T08:07:59;103314.66;;;27.11;20.96
77739;BME280;66904;59.926;30.404;2023-02-08T08:13:00;103309.94;;;27.13;21.29
77739;BME280;66904;59.926;30.404;2023-02-08T08:18:02;103312.66;;;27.13;21.28
77739;BME280;66904;59.926;30.404;2023-02-08T08:23:03;103323.34;;;27.15;21.34
77739;BME280;66904;59.926;30.404;2023-02-08T08:28:04;103305.19;;;27.15;21.42
77739;BME280;66904;59.926;30.404;2023-02-08T08:33:05;103312.16;;;27.18;21.56
77739;BME280;66904;59.926;30.404;2023-02-08T08:38:06;103307.59;;;27.18;21.27
77739;BME280;66904;59.926;30.404;2023-02-08T08:43:06;103309.31;;;27.19;21.44
77739;BME280;66904;59.926;30.404;2023-02-08T08:48:07;103324.94;;;27.17;21.34
77739;BME280;66904;59.926;30.404;2023-02-08T08:53:08;103325.59;;;27.19;21.10
77739;BME280;66904;59.926;30.404;2023-02-08T08:58:09;103315.28;;;27.23;21.21
77739;BME280;66904;59.926;30.404;2023-02-08T09:03:09;103319.06;;;27.30;21.41
77739;BME280;66904;59.926;30.404;2023-02-08T09:08:10;103328.09;;;27.39;21.97
77739;BME280;66904;59.926;30.404;2023-02-08T09:13:12;103325.63;;;27.45;21.41
77739;BME280;66904;59.926;30.404;2023-02-08T09:18:18;103330.41;;;27.51;21.51
77739;BME280;66904;59.926;30.404;2023-02-08T09:23:19;103338.44;;;27.53;21.83
77739;BME280;66904;59.926;30.404;2023-02-08T09:28:19;103338.56;;;27.51;21.45
77739;BME280;66904;59.926;30.404;2023-02-08T09:33:20;103354.34;;;27.48;21.36
77739;BME280;66904;59.926;30.404;2023-02-08T09:38:20;103365.41;;;27.46;21.23
77739;BME280;66904;59.926;30.404;2023-02-08T09:43:28;103371.00;;;27.45;21.83
77739;BME280;66904;59.926;30.404;2023-02-08T09:48:34;103364.00;;;27.42;21.15
77739;BME280;66904;59.926;30.404;2023-02-08T09:53:39;103349.19;;;27.37;21.29
77739;BME280;66904;59.926;30.404;2023-02-08T09:58:49;103350.34;;;27.34;21.40
77739;BME280;66904;59.926;30.404;2023-02-08T10:03:54;103364.75;;;27.27;21.25
77739;BME280;66904;59.926;30.404;2023-02-08T10:09:00;103355.03;;;27.24;21.44
77739;BME280;66904;59.926;30.404;2023-02-08T10:25:27;103333.63;;;27.21;21.15
77739;BME280;66904;59.926;30.404;2023-02-08T10:30:48;103332.22;;;27.17;21.46
77739;BME280;66904;59.926;30.404;2023-02-08T10:35:52;103314.38;;;27.14;21.38
77739;BME280;66904;59.926;30.404;2023-02-08T10:41:04;103317.81;;;27.24;21.29
77739;BME280;66904;59.926;30.404;2023-02-08T10:51:25;103303.75;;;27.29;21.20
77739;BME280;66904;59.926;30.404;2023-02-08T11:01:29;103319.94;;;27.39;21.42
77739;BME280;66904;59.926;30.404;2023-02-08T11:06:30;103309.78;;;27.41;21.67
77739;BME280;66904;59.926;30.404;2023-02-08T11:11:36;103301.44;;;27.42;21.26
77739;BME280;66904;59.926;30.404;2023-02-08T11:16:37;103311.16;;;27.45;21.46
77739;BME280;66904;59.926;30.404;2023-02-08T11:21:39;103320.38;;;27.44;21.26
77739;BME280;66904;59.926;30.404;2023-02-08T11:26:41;103314.03;;;27.43;21.22
77739;BME280;66904;59.926;30.404;2023-02-08T11:37:19;103319.94;;;27.39;21.24
77739;BME280;66904;59.926;30.404;2023-02-08T11:42:28;103320.94;;;27.38;21.27
77739;BME280;66904;59.926;30.404;2023-02-08T11:47:32;103317.56;;;27.36;21.28
77739;BME280;66904;59.926;30.404;2023-02-08T11:52:41;103327.25;;;27.38;21.64
77739;BME280;66904;59.926;30.404;2023-02-08T11:57:59;103336.44;;;27.37;21.39
77739;BME280;66904;59.926;30.404;2023-02-08T12:03:25;103322.91;;;27.45;21.12
77739;BME280;66904;59.926;30.404;2023-02-08T12:14:24;103342.47;;;27.49;21.26
77739;BME280;66904;59.926;30.404;2023-02-08T12:25:32;103339.41;;;27.44;21.50
77739;BME280;66904;59.926;30.404;2023-02-08T12:30:16;103328.97;;;27.39;21.61
77739;BME280;66904;59.926;30.404;2023-02-08T12:56:32;103341.34;;;27.34;21.30
77739;BME280;66904;59.926;30.404;2023-02-08T13:01:41;103329.44;;;27.35;21.78
77739;BME280;66904;59.926;30.404;2023-02-08T13:06:48;103330.59;;;27.32;21.56
77739;BME280;66904;59.926;30.404;2023-02-08T13:11:54;103324.31;;;27.32;21.15
77739;BME280;66904;59.926;30.404;2023-02-08T13:17:00;103329.94;;;27.30;21.29
77739;BME280;66904;59.926;30.404;2023-02-08T13:22:04;103333.50;;;27.31;21.54
77739;BME280;66904;59.926;30.404;2023-02-08T13:27:05;103347.25;;;27.29;21.29
77739;BME280;66904;59.926;30.404;2023-02-08T13:32:33;103343.75;;;27.37;21.56
77739;BME280;66904;59.926;30.404;2023-02-08T13:37:36;103338.78;;;27.32;21.78
77739;BME280;66904;59.926;30.404;2023-02-08T13:42:48;103346.59;;;27.35;21.39
77739;BME280;66904;59.926;30.404;2023-02-08T13:47:57;103363.25;;;27.32;21.42
77739;BME280;66904;59.926;30.404;2023-02-08T13:52:59;103366.13;;;27.31;21.61
77739;BME280;66904;59.926;30.404;2023-02-08T14:13:28;103337.97;;;27.40;21.98
77739;BME280;66904;59.926;30.404;2023-02-08T14:18:30;103345.94;;;27.41;22.23
77739;BME280;66904;59.926;30.404;2023-02-08T14:23:34;103327.97;;;27.40;21.73
77739;BME280;66904;59.926;30.404;2023-02-08T14:28:44;103324.06;;;27.43;21.91
77739;BME280;66904;59.926;30.404;2023-02-08T14:33:52;103328.63;;;27.42;22.62
77739;BME280;66904;59.926;30.404;2023-02-08T14:39:22;103315.47;;;27.47;22.00
77739;BME280;66904;59.926;30.404;2023-02-08T14:49:43;103324.75;;;27.45;22.09
77739;BME280;66904;59.926;30.404;2023-02-08T14:54:52;103323.44;;;27.49;21.93
77739;BME280;66904;59.926;30.404;2023-02-08T14:59:54;103320.56;;;27.50;22.06
77739;BME280;66904;59.926;30.404;2023-02-08T15:04:59;103324.81;;;27.53;22.19
77739;BME280;66904;59.926;30.404;2023-02-08T15:10:05;103326.75;;;27.60;22.61
77739;BME280;66904;59.926;30.404;2023-02-08T15:20:27;103338.16;;;27.64;23.60
77739;BME280;66904;59.926;30.404;2023-02-08T15:25:33;103342.56;;;27.65;23.22
77739;BME280;66904;59.926;30.404;2023-02-08T15:30:36;103329.66;;;27.67;23.76
77739;BME280;66904;59.926;30.404;2023-02-08T15:35:37;103314.03;;;27.69;24.05
77739;BME280;66904;59.926;30.404;2023-02-08T15:40:38;103316.41;;;27.72;24.22
77739;BME280;66904;59.926;30.404;2023-02-08T15:45:38;103316.94;;;27.76;24.08
77739;BME280;66904;59.926;30.404;2023-02-08T15:50:39;103310.66;;;27.75;23.98
77739;BME280;66904;59.926;30.404;2023-02-08T15:55:47;103301.63;;;27.74;24.81
77739;BME280;66904;59.926;30.404;2023-02-08T16:00:49;103297.91;;;27.76;24.50
77739;BME280;66904;59.926;30.404;2023-02-08T16:06:07;103272.59;;;27.83;24.24
77739;BME280;66904;59.926;30.404;2023-02-08T16:11:19;103277.66;;;27.78;24.49
77739;BME280;66904;59.926;30.404;2023-02-08T16:16:37;103274.94;;;27.78;23.96
77739;BME280;66904;59.926;30.404;2023-02-08T16:21:40;103271.16;;;27.71;24.01
77739;BME280;66904;59.926;30.404;2023-02-08T16:31:57;103277.84;;;27.77;24.40
77739;BME280;66904;59.926;30.404;2023-02-08T16:37:02;103257.91;;;27.68;24.26
77739;BME280;66904;59.926;30.404;2023-02-08T16:42:06;103265.59;;;27.72;23.88
77739;BME280;66904;59.926;30.404;2023-02-08T16:47:46;103271.88;;;27.73;24.14
77739;BME280;66904;59.926;30.404;2023-02-08T16:52:54;103263.19;;;27.69;24.19
77739;BME280;66904;59.926;30.404;2023-02-08T16:57:56;103260.94;;;27.65;23.64
77739;BME280;66904;59.926;30.404;2023-02-08T17:02:57;103252.13;;;27.63;23.93
77739;BME280;66904;59.926;30.404;2023-02-08T17:07:58;103251.94;;;27.64;24.08
77739;BME280;66904;59.926;30.404;2023-02-08T17:13:00;103251.94;;;27.64;24.41
77739;BME280;66904;59.926;30.404;2023-02-08T17:18:01;103256.22;;;27.67;24.31
77739;BME280;66904;59.926;30.404;2023-02-08T17:23:03;103243.47;;;27.67;24.08
77739;BME280;66904;59.926;30.404;2023-02-08T17:28:07;103249.94;;;27.66;23.86
77739;BME280;66904;59.926;30.404;2023-02-08T17:33:10;103259.28;;;27.64;23.50
77739;BME280;66904;59.926;30.404;2023-02-08T17:38:17;103255.84;;;27.62;23.65
77739;BME280;66904;59.926;30.404;2023-02-08T17:43:18;103250.59;;;27.60;23.48
77739;BME280;66904;59.926;30.404;2023-02-08T17:48:19;103264.19;;;27.60;23.48
77739;BME280;66904;59.926;30.404;2023-02-08T17:53:19;103271.50;;;27.60;23.71
77739;BME280;66904;59.926;30.404;2023-02-08T17:58:20;103255.84;;;27.62;23.46
77739;BME280;66904;59.926;30.404;2023-02-08T18:03:20;103253.13;;;27.62;23.57
77739;BME280;66904;59.926;30.404;2023-02-08T18:08:21;103241.91;;;27.65;23.88
77739;BME280;66904;59.926;30.404;2023-02-08T18:13:38;103240.94;;;27.74;23.61
77739;BME280;66904;59.926;30.404;2023-02-08T18:18:42;103246.53;;;27.72;23.50
77739;BME280;66904;59.926;30.404;2023-02-08T18:23:43;103239.25;;;27.81;23.59
77739;BME280;66904;59.926;30.404;2023-02-08T18:28:44;103224.81;;;27.89;23.44
77739;BME280;66904;59.926;30.404;2023-02-08T18:33:47;103219.56;;;27.95;23.39
77739;BME280;66904;59.926;30.404;2023-02-08T18:38:49;103223.47;;;28.01;24.04
77739;BME280;66904;59.926;30.404;2023-02-08T18:43:51;103228.81;;;28.10;24.05
77739;BME280;66904;59.926;30.404;2023-02-08T18:48:52;103230.00;;;28.24;24.10
77739;BME280;66904;59.926;30.404;2023-02-08T18:53:54;103212.66;;;28.41;23.84
77739;BME280;66904;59.926;30.404;2023-02-08T18:58:57;103206.84;;;28.60;24.08
77739;BME280;66904;59.926;30.404;2023-02-08T19:03:59;103204.81;;;28.79;23.73
77739;BME280;66904;59.926;30.404;2023-02-08T19:09:01;103205.47;;;28.89;23.98
77739;BME280;66904;59.926;30.404;2023-02-08T19:14:04;103190.13;;;28.96;23.85
77739;BME280;66904;59.926;30.404;2023-02-08T19:19:06;103195.03;;;29.00;24.00
77739;BME280;66904;59.926;30.404;2023-02-08T19:24:06;103178.00;;;29.06;23.77
77739;BME280;66904;59.926;30.404;2023-02-08T19:29:10;103185.47;;;29.12;23.55
77739;BME280;66904;59.926;30.404;2023-02-08T19:34:12;103182.03;;;29.18;23.29
77739;BME280;66904;59.926;30.404;2023-02-08T19:39:15;103183.41;;;29.22;23.32
77739;BME280;66904;59.926;30.404;2023-02-08T19:44:17;103184.25;;;29.23;23.53
77739;BME280;66904;59.926;30.404;2023-02-08T19:49:19;103176.88;;;29.23;23.68
77739;BME280;66904;59.926;30.404;2023-02-08T19:54:19;103170.94;;;29.28;24.13
77739;BME280;66904;59.926;30.404;2023-02-08T19:59:27;103170.56;;;29.39;24.81
77739;BME280;66904;59.926;30.404;2023-02-08T20:04:31;103156.00;;;29.47;24.64
77739;BME280;66904;59.926;30.404;2023-02-08T20:09:32;103153.25;;;29.55;25.14
77739;BME280;66904;59.926;30.404;2023-02-08T20:14:32;103148.56;;;29.63;24.75
77739;BME280;66904;59.926;30.404;2023-02-08T20:19:36;103148.03;;;29.68;25.43
77739;BME280;66904;59.926;30.404;2023-02-08T20:24:37;103124.34;;;29.68;25.64
77739;BME280;66904;59.926;30.404;2023-02-08T20:29:38;103136.13;;;29.69;25.00
77739;BME280;66904;59.926;30.404;2023-02-08T20:34:38;103127.13;;;29.60;24.70
77739;BME280;66904;59.926;30.404;2023-02-08T20:39:39;103127.72;;;29.48;24.63
77739;BME280;66904;59.926;30.404;2023-02-08T20:44:39;103105.97;;;29.40;24.96
77739;BME280;66904;59.926;30.404;2023-02-08T20:49:40;103109.56;;;29.32;24.38
77739;BME280;66904;59.926;30.404;2023-02-08T20:54:41;103101.59;;;29.22;24.74
77739;BME280;66904;59.926;30.404;2023-02-08T20:59:41;103096.34;;;29.13;24.60
77739;BME280;66904;59.926;30.404;2023-02-08T21:04:42;103098.44;;;29.03;24.24
77739;BME280;66904;59.926;30.404;2023-02-08T21:09:43;103095.38;;;28.98;24.28
77739;BME280;66904;59.926;30.404;2023-02-08T21:14:44;103081.25;;;28.94;24.49
77739;BME280;66904;59.926;30.404;2023-02-08T21:19:44;103086.56;;;28.88;24.78
77739;BME280;66904;59.926;30.404;2023-02-08T21:24:46;103093.06;;;28.87;24.76
77739;BME280;66904;59.926;30.404;2023-02-08T21:29:50;103086.06;;;28.84;24.93
77739;BME280;66904;59.926;30.404;2023-02-08T21:34:51;103085.56;;;28.81;24.62
77739;BME280;66904;59.926;30.404;2023-02-08T21:39:51;103073.34;;;28.77;24.80
77739;BME280;66904;59.926;30.404;2023-02-08T21:44:52;103070.78;;;28.75;25.03
77739;BME280;66904;59.926;30.404;2023-02-08T21:56:02;103059.75;;;28.68;25.24
77739;BME280;66904;59.926;30.404;2023-02-08T22:01:03;103053.28;;;28.61;24.57
77739;BME280;66904;59.926;30.404;2023-02-08T22:06:05;103041.72;;;28.59;24.64
77739;BME280;66904;59.926;30.404;2023-02-08T22:11:24;103029.09;;;28.58;24.55
77739;BME280;66904;59.926;30.404;2023-02-08T22:16:25;103031.16;;;28.56;24.70
77739;BME280;66904;59.926;30.404;2023-02-08T22:27:37;103026.91;;;28.54;24.57
77739;BME280;66904;59.926;30.404;2023-02-08T22:32:56;103016.56;;;28.49;24.60
77739;BME280;66904;59.926;30.404;2023-02-08T22:38:15;103013.78;;;28.57;25.03
77739;BME280;66904;59.926;30.404;2023-02-08T22:43:15;103006.50;;;28.50;24.20
77739;BME280;66904;59.926;30.404;2023-02-08T22:48:16;102989.47;;;28.48;24.68
77739;BME280;66904;59.926;30.404;2023-02-08T22:53:22;102982.34;;;28.47;24.84
77739;BME280;66904;59.926;30.404;2023-02-08T22:58:38;102983.38;;;28.46;24.86
77739;BME280;66904;59.926;30.404;2023-02-08T23:03:39;102977.06;;;28.45;24.25
77739;BME280;66904;59.926;30.404;2023-02-08T23:08:40;102976.22;;;28.45;24.33
77739;BME280;66904;59.926;30.404;2023-02-08T23:13:40;102967.19;;;28.44;24.59
77739;BME280;66904;59.926;30.404;2023-02-08T23:18:41;102963.44;;;28.45;24.67
77739;BME280;66904;59.926;30.404;2023-02-08T23:23:42;102959.03;;;28.44;24.47
77739;BME280;66904;59.926;30.404;2023-02-08T23:28:49;102961.94;;;28.43;24.43
77739;BME280;66904;59.926;30.404;2023-02-08T23:33:50;102947.63;;;28.41;24.63
77739;BME280;66904;59.926;30.404;2023-02-08T23:39:00;102952.06;;;28.42;24.54
